Carnival Glory — 3FPS9 — position and weather

sailwx.info

Track history (hours):
 
Tides and Currents Weather Stations Pressure Air Temp Water Temp Dewpoint Dewpoint Depression Visibility Wind Speed Wind Dir Waves Ship Positions

Carnival Glory

Operator: Carnival Cruise Lines

Last reported at 2019-Nov-13 16:00 UTC. Time now 2019-Nov-14 22:18 UTC.
Position N 16°20' W 086°30'.

Type: Passenger vessel. MMSI: 357659000.

Date/timePositionNaut miles runAvg speedWind from/ knotsBaromVisibWave heightAir tempDewpointWater temp
2019-Nov-13 16:00N 16°20' W 086°30'0 0.0
2019-Nov-13 14:30N 16°20' W 086°30'0 0.0
2019-Nov-13 14:00N 16°20' W 086°30'6 3.7
2019-Nov-13 12:30N 16°19' W 086°24'1212.1
2019-Nov-13 11:29N 16°21' W 086°11'15 9.9
2019-Nov-13 10:00N 16°33' W 086°03'613.2
2019-Nov-13 09:30N 16°40' W 086°03'  
2019-Nov-11 03:06N 29°22' W 089°26'711.8
2019-Nov-11 02:29N 29°22' W 089°34'612.5
2019-Nov-11 02:00N 29°27' W 089°38'1515.1
2019-Nov-11 01:00N 29°36' W 089°52'612.2
2019-Nov-11 00:29N 29°40' W 089°58'1312.5
2019-Nov-10 23:29N 29°53' W 089°58'6 5.6
2019-Nov-10 22:30N 29°57' W 090°02'2 1.2
2019-Nov-10 21:00N 29°56' W 090°04'0 0.0
2019-Nov-10 18:27N 29°56' W 090°04'0 0.0
2019-Nov-10 15:57N 29°56' W 090°04'12 1.7
2019-Nov-10 09:00N 29°45' W 090°01'3712.1
2019-Nov-10 05:59N 29°21' W 089°29'19 9.6
2019-Nov-10 03:59N 29°04' W 089°19'56013.2
2019-Nov-08 09:30N 25°30' W 079°36'917.7
2019-Nov-08 09:00N 25°38' W 079°36'917.7
2019-Nov-08 08:30N 25°47' W 079°35'2717.7
2019-Nov-08 07:00N 26°12' W 079°25'39 0.8
2019-Nov-06 08:30N 25°35' W 079°38'  
2019-Nov-04 00:00N 29°40' W 089°58'17 6.9
2019-Nov-03 21:29N 29°56' W 090°04'0 0.0
2019-Nov-03 20:59N 29°56' W 090°04'0 0.0
2019-Nov-03 16:59N 29°56' W 090°04'  
Track history (hours):
 
Tides and Currents Weather Stations Pressure Air Temp Water Temp Dewpoint Dewpoint Depression Visibility Wind Speed Wind Dir Waves Ship Positions

Carnival Glory

Operator: Carnival Cruise Lines

Last reported at 2019-Nov-13 16:00 UTC. Time now 2019-Nov-14 22:18 UTC.
Position N 16°20' W 086°30'.

Type: Passenger vessel. MMSI: 357659000.

Date/timePositionNaut miles runAvg speedWind from/ knotsBaromVisibWave heightAir tempDewpointWater temp
2019-Nov-13 16:00N 16°20' W 086°30'0 0.0
2019-Nov-13 14:30N 16°20' W 086°30'0 0.0
2019-Nov-13 14:00N 16°20' W 086°30'6 3.7
2019-Nov-13 12:30N 16°19' W 086°24'1212.1
2019-Nov-13 11:29N 16°21' W 086°11'15 9.9
2019-Nov-13 10:00N 16°33' W 086°03'613.2
2019-Nov-13 09:30N 16°40' W 086°03'  
2019-Nov-11 03:06N 29°22' W 089°26'711.8
2019-Nov-11 02:29N 29°22' W 089°34'612.5
2019-Nov-11 02:00N 29°27' W 089°38'1515.1
2019-Nov-11 01:00N 29°36' W 089°52'612.2
2019-Nov-11 00:29N 29°40' W 089°58'1312.5
2019-Nov-10 23:29N 29°53' W 089°58'6 5.6
2019-Nov-10 22:30N 29°57' W 090°02'2 1.2
2019-Nov-10 21:00N 29°56' W 090°04'0 0.0
2019-Nov-10 18:27N 29°56' W 090°04'0 0.0
2019-Nov-10 15:57N 29°56' W 090°04'12 1.7
2019-Nov-10 09:00N 29°45' W 090°01'3712.1
2019-Nov-10 05:59N 29°21' W 089°29'19 9.6
2019-Nov-10 03:59N 29°04' W 089°19'56013.2
2019-Nov-08 09:30N 25°30' W 079°36'917.7
2019-Nov-08 09:00N 25°38' W 079°36'917.7
2019-Nov-08 08:30N 25°47' W 079°35'2717.7
2019-Nov-08 07:00N 26°12' W 079°25'39 0.8
2019-Nov-06 08:30N 25°35' W 079°38'  
2019-Nov-04 00:00N 29°40' W 089°58'17 6.9
2019-Nov-03 21:29N 29°56' W 090°04'0 0.0
2019-Nov-03 20:59N 29°56' W 090°04'0 0.0
2019-Nov-03 16:59N 29°56' W 090°04'  

Dump ship's entire track history